createdAt,value
2022-07-27T00:01:08.417Z,17.90
2022-07-27T00:03:36.931Z,17.70
2022-07-27T00:06:05.147Z,17.50
2022-07-27T00:08:33.306Z,17.60
2022-07-27T00:11:02.800Z,17.60
2022-07-27T00:13:32.303Z,17.70
2022-07-27T00:16:00.450Z,18.00
2022-07-27T00:18:28.540Z,17.80
2022-07-27T00:20:56.567Z,17.90
2022-07-27T00:23:24.691Z,18.00
2022-07-27T00:25:52.873Z,17.80
2022-07-27T00:28:22.265Z,17.90
2022-07-27T00:30:50.413Z,17.70
2022-07-27T00:33:18.523Z,17.70
2022-07-27T00:35:46.588Z,17.70
2022-07-27T00:38:14.758Z,17.80
2022-07-27T00:40:43.012Z,18.00
2022-07-27T00:43:11.111Z,17.70
2022-07-27T00:45:40.477Z,17.80
2022-07-27T00:48:08.595Z,17.60
2022-07-27T00:50:37.191Z,17.60
2022-07-27T00:53:06.070Z,17.50
2022-07-27T00:55:35.225Z,17.50
2022-07-27T00:58:05.878Z,17.60
2022-07-27T01:00:33.974Z,17.50
2022-07-27T01:03:07.394Z,17.50
2022-07-27T01:05:42.953Z,17.60
2022-07-27T01:08:14.240Z,17.80
2022-07-27T01:10:43.449Z,18.00
2022-07-27T01:13:13.275Z,17.70
2022-07-27T01:15:43.119Z,17.20
2022-07-27T01:18:28.497Z,17.20
2022-07-27T01:20:56.923Z,17.20
2022-07-27T01:23:27.305Z,17.20
2022-07-27T01:25:55.593Z,17.20
2022-07-27T01:28:24.115Z,17.20
2022-07-27T01:30:53.213Z,17.30
2022-07-27T01:33:26.026Z,17.30
2022-07-27T01:35:55.955Z,17.30
2022-07-27T01:38:24.185Z,17.30
2022-07-27T01:40:54.931Z,17.20
2022-07-27T01:43:23.386Z,17.20
2022-07-27T01:45:51.748Z,17.30
2022-07-27T01:48:20.754Z,17.20
2022-07-27T01:50:51.055Z,17.20
2022-07-27T01:53:19.241Z,17.20
2022-07-27T01:55:47.634Z,17.20
2022-07-27T01:58:17.445Z,17.20
2022-07-27T02:00:45.919Z,17.10
2022-07-27T02:03:14.030Z,17.10
2022-07-27T02:05:42.103Z,17.20
2022-07-27T02:08:10.564Z,17.20
2022-07-27T02:10:59.047Z,17.20
2022-07-27T02:13:28.409Z,17.00
2022-07-27T02:15:57.162Z,16.90
2022-07-27T02:18:33.381Z,16.80
2022-07-27T02:21:05.993Z,16.80
2022-07-27T02:23:35.182Z,16.80
2022-07-27T02:26:04.004Z,16.80
2022-07-27T02:28:33.687Z,16.80
2022-07-27T02:31:02.308Z,16.80
2022-07-27T02:33:30.550Z,16.70
2022-07-27T02:35:58.904Z,16.60
2022-07-27T02:38:27.005Z,16.60
2022-07-27T02:40:55.107Z,16.60
2022-07-27T02:43:23.262Z,16.70
2022-07-27T02:45:52.847Z,16.70
2022-07-27T02:48:20.975Z,16.60
2022-07-27T02:50:49.056Z,16.60
2022-07-27T02:53:17.113Z,16.60
2022-07-27T02:55:45.148Z,16.70
2022-07-27T02:58:13.148Z,16.70
2022-07-27T03:00:41.387Z,16.70
2022-07-27T03:03:10.745Z,16.80
2022-07-27T03:05:39.461Z,16.80
2022-07-27T03:08:07.837Z,16.80
2022-07-27T03:10:35.961Z,16.90
2022-07-27T03:13:04.203Z,16.90
2022-07-27T03:15:34.348Z,16.90
2022-07-27T03:18:02.819Z,17.00
2022-07-27T03:20:32.531Z,17.00
2022-07-27T03:23:00.560Z,16.90
2022-07-27T03:25:28.867Z,16.90
2022-07-27T03:28:01.953Z,16.90
2022-07-27T03:30:32.474Z,16.90
2022-07-27T03:33:00.632Z,16.90
2022-07-27T03:35:28.893Z,16.80
2022-07-27T03:37:58.267Z,16.80
2022-07-27T03:40:29.360Z,16.80
2022-07-27T03:42:57.563Z,16.70
2022-07-27T03:45:25.953Z,16.70
2022-07-27T03:47:54.100Z,16.70
2022-07-27T03:50:22.538Z,16.70
2022-07-27T03:52:50.683Z,16.70
2022-07-27T03:55:20.100Z,16.70
2022-07-27T03:57:48.247Z,16.70
2022-07-27T04:00:16.523Z,16.80
2022-07-27T04:02:44.641Z,16.80
2022-07-27T04:05:13.550Z,16.70
2022-07-27T04:07:42.018Z,16.80
2022-07-27T04:10:11.231Z,16.60
2022-07-27T04:12:41.500Z,16.60
2022-07-27T04:15:10.721Z,16.50
2022-07-27T04:17:55.238Z,16.60
2022-07-27T04:20:25.574Z,16.60
2022-07-27T04:22:53.564Z,16.60
2022-07-27T04:25:21.930Z,16.60
2022-07-27T04:27:54.499Z,16.50
2022-07-27T04:30:23.170Z,16.70
2022-07-27T04:32:51.531Z,16.70
2022-07-27T04:35:25.685Z,16.70
2022-07-27T04:37:58.179Z,16.90
2022-07-27T04:40:31.181Z,17.00
2022-07-27T04:43:00.940Z,17.00
2022-07-27T04:45:29.133Z,17.00
2022-07-27T04:47:57.283Z,16.90
2022-07-27T04:50:25.566Z,16.80
2022-07-27T04:52:53.696Z,16.70
2022-07-27T04:55:21.739Z,16.60
2022-07-27T04:57:50.646Z,16.50
2022-07-27T05:00:20.420Z,16.50
2022-07-27T05:02:48.593Z,16.60
2022-07-27T05:05:16.606Z,16.60
2022-07-27T05:07:44.708Z,16.60
2022-07-27T05:10:17.932Z,16.60
2022-07-27T05:12:48.112Z,16.70
2022-07-27T05:15:16.468Z,16.70
2022-07-27T05:17:45.910Z,16.80
2022-07-27T05:20:15.095Z,16.80
2022-07-27T05:22:43.414Z,16.80
2022-07-27T05:25:11.708Z,16.80
2022-07-27T05:27:53.910Z,16.70
2022-07-27T05:30:25.554Z,16.70
2022-07-27T05:32:55.057Z,16.90
2022-07-27T05:35:23.681Z,17.00
2022-07-27T05:37:51.902Z,17.00
2022-07-27T05:40:20.157Z,17.00
2022-07-27T05:42:48.192Z,17.00
2022-07-27T05:45:16.620Z,17.00
2022-07-27T05:47:44.629Z,17.10
2022-07-27T05:50:14.418Z,17.30
2022-07-27T05:52:43.274Z,17.60
2022-07-27T05:55:12.097Z,18.00
2022-07-27T05:57:41.950Z,18.00
2022-07-27T06:00:11.917Z,17.70
2022-07-27T06:02:40.085Z,17.50
2022-07-27T06:05:14.876Z,17.90
2022-07-27T06:07:59.354Z,18.00
2022-07-27T06:10:28.473Z,18.50
2022-07-27T06:12:57.048Z,18.00
2022-07-27T06:15:25.770Z,18.20
2022-07-27T06:17:54.404Z,18.20
2022-07-27T06:20:23.747Z,18.30
2022-07-27T06:22:54.723Z,18.50
2022-07-27T06:25:34.356Z,18.50
2022-07-27T06:28:04.704Z,18.40
2022-07-27T06:30:33.117Z,18.60
2022-07-27T06:33:01.477Z,18.70
2022-07-27T06:35:29.733Z,18.60
2022-07-27T06:38:00.352Z,18.70
2022-07-27T06:40:29.914Z,18.90
2022-07-27T06:42:58.425Z,18.60
2022-07-27T06:45:27.827Z,18.50
2022-07-27T06:47:55.940Z,18.40
2022-07-27T06:50:25.600Z,18.70
2022-07-27T06:52:53.811Z,18.70
2022-07-27T06:55:23.237Z,18.90
2022-07-27T06:57:51.466Z,18.60
2022-07-27T07:00:19.528Z,18.80
2022-07-27T07:02:55.147Z,18.90
2022-07-27T07:05:24.082Z,19.50
2022-07-27T07:07:52.709Z,20.20
2022-07-27T07:10:23.982Z,19.10
2022-07-27T07:12:55.764Z,19.30
2022-07-27T07:15:25.440Z,19.20
2022-07-27T07:17:53.512Z,18.80
2022-07-27T07:20:21.754Z,19.00
2022-07-27T07:22:50.146Z,19.30
2022-07-27T07:25:18.346Z,19.00
2022-07-27T07:27:47.734Z,19.10
2022-07-27T07:30:16.051Z,19.30
2022-07-27T07:32:44.137Z,19.40
2022-07-27T07:35:12.366Z,19.30
2022-07-27T07:37:40.583Z,19.20
2022-07-27T07:40:41.568Z,19.30
2022-07-27T07:43:01.844Z,19.50
2022-07-27T07:45:31.511Z,19.70
2022-07-27T07:47:59.648Z,19.90
2022-07-27T07:50:28.894Z,19.60
2022-07-27T07:52:57.086Z,19.80
2022-07-27T07:55:27.458Z,19.50
2022-07-27T07:57:57.421Z,19.90
2022-07-27T08:00:26.900Z,19.80
2022-07-27T08:02:57.789Z,20.00
2022-07-27T08:05:27.310Z,19.90
2022-07-27T08:07:56.096Z,19.80
2022-07-27T08:10:24.895Z,19.90
2022-07-27T08:12:55.552Z,20.00
2022-07-27T08:15:34.728Z,20.10
2022-07-27T08:18:06.703Z,20.10
2022-07-27T08:20:35.351Z,20.30
2022-07-27T08:23:03.645Z,20.30
2022-07-27T08:25:32.080Z,20.40
2022-07-27T08:28:00.268Z,20.40
2022-07-27T08:30:32.406Z,20.40
2022-07-27T08:33:04.302Z,20.30
2022-07-27T08:35:34.866Z,20.30
2022-07-27T08:38:04.946Z,20.50
2022-07-27T08:40:40.163Z,20.50
2022-07-27T08:43:11.014Z,20.20
2022-07-27T08:45:41.966Z,20.30
2022-07-27T08:48:14.567Z,20.50
2022-07-27T08:50:44.644Z,20.60
2022-07-27T08:53:14.536Z,20.30
2022-07-27T08:55:44.694Z,20.70
2022-07-27T08:58:13.805Z,21.00
2022-07-27T09:00:44.251Z,21.00
2022-07-27T09:03:18.503Z,20.70
2022-07-27T09:05:51.285Z,20.60
2022-07-27T09:08:24.350Z,20.30
2022-07-27T09:10:54.694Z,20.60
2022-07-27T09:13:25.898Z,20.40
2022-07-27T09:16:17.638Z,20.70
2022-07-27T09:18:44.705Z,20.80
2022-07-27T09:21:16.292Z,20.90
2022-07-27T09:23:48.077Z,20.80
2022-07-27T09:26:35.875Z,21.40
2022-07-27T09:29:06.940Z,22.00
2022-07-27T09:31:42.753Z,21.80
2022-07-27T09:34:11.806Z,21.40
2022-07-27T09:36:53.354Z,21.70
2022-07-27T09:39:23.313Z,22.10
2022-07-27T09:41:55.666Z,22.10
2022-07-27T09:44:44.053Z,22.30
2022-07-27T09:47:23.278Z,22.00
2022-07-27T09:49:51.483Z,21.90
2022-07-27T09:52:26.438Z,21.70
2022-07-27T09:54:55.179Z,22.00
2022-07-27T09:57:23.298Z,21.90
2022-07-27T10:00:13.951Z,22.00
2022-07-27T10:02:43.469Z,21.60
2022-07-27T10:05:11.993Z,21.80
2022-07-27T10:07:42.654Z,21.90
2022-07-27T10:10:12.554Z,22.40
2022-07-27T10:12:41.473Z,22.40
2022-07-27T10:15:10.938Z,22.00
2022-07-27T10:17:44.246Z,22.20
2022-07-27T10:20:16.839Z,21.80
2022-07-27T10:22:54.087Z,22.40
2022-07-27T10:25:23.320Z,22.10
2022-07-27T10:28:10.369Z,21.70
2022-07-27T10:30:40.056Z,22.10
2022-07-27T10:33:15.761Z,22.30
2022-07-27T10:35:44.169Z,22.40
2022-07-27T10:38:16.742Z,22.80
2022-07-27T10:40:49.248Z,22.90
2022-07-27T10:43:22.162Z,23.50
2022-07-27T10:46:01.612Z,23.00
2022-07-27T10:48:40.543Z,22.70
2022-07-27T10:51:13.662Z,22.70
2022-07-27T10:56:46.829Z,22.60
2022-07-27T10:59:15.436Z,22.50
2022-07-27T11:01:58.057Z,22.30
2022-07-27T11:04:27.267Z,22.00
2022-07-27T11:07:23.991Z,22.20
2022-07-27T11:10:03.565Z,22.10
2022-07-27T11:12:32.870Z,22.30
2022-07-27T11:15:02.464Z,22.20
2022-07-27T11:17:54.772Z,21.80
2022-07-27T11:20:23.323Z,21.90
2022-07-27T11:25:41.079Z,22.50
2022-07-27T11:28:09.127Z,23.10
2022-07-27T11:30:37.465Z,23.00
2022-07-27T11:33:07.272Z,23.60
2022-07-27T11:35:35.672Z,23.90
2022-07-27T11:38:06.073Z,23.30
2022-07-27T11:43:39.031Z,23.90
2022-07-27T11:46:16.004Z,22.90
2022-07-27T11:49:08.611Z,22.30
2022-07-27T11:51:43.307Z,22.30
2022-07-27T11:54:13.326Z,22.50
2022-07-27T11:56:46.594Z,22.60
2022-07-27T11:59:17.223Z,23.10
2022-07-27T12:01:48.574Z,22.90
2022-07-27T12:04:25.164Z,22.70
2022-07-27T12:07:05.930Z,22.30
2022-07-27T12:09:38.302Z,22.50
2022-07-27T12:12:16.395Z,23.10
2022-07-27T12:14:47.162Z,23.40
2022-07-27T12:17:27.848Z,23.40
2022-07-27T12:19:59.062Z,23.70
2022-07-27T12:22:34.003Z,23.50
2022-07-27T12:25:12.397Z,23.40
2022-07-27T12:27:57.131Z,23.10
2022-07-27T12:30:33.358Z,22.70
2022-07-27T12:33:02.515Z,22.80
2022-07-27T12:35:37.325Z,23.00
2022-07-27T12:38:08.669Z,22.90
2022-07-27T12:40:45.091Z,23.00
2022-07-27T12:43:18.259Z,23.80
2022-07-27T12:45:47.784Z,23.70
2022-07-27T12:48:17.870Z,24.00
2022-07-27T12:50:48.146Z,24.60
2022-07-27T12:53:17.642Z,25.10
2022-07-27T12:55:46.033Z,23.80
2022-07-27T12:58:15.605Z,23.10
2022-07-27T13:00:44.152Z,22.60
2022-07-27T13:03:12.261Z,22.60
2022-07-27T13:05:40.436Z,22.50
2022-07-27T13:08:09.453Z,22.90
2022-07-27T13:10:38.309Z,23.60
2022-07-27T13:13:07.333Z,23.90
2022-07-27T13:15:37.315Z,23.50
2022-07-27T13:18:05.711Z,23.40
2022-07-27T13:20:34.044Z,23.80
2022-07-27T13:23:02.044Z,23.20
2022-07-27T13:25:30.430Z,23.20
2022-07-27T13:27:58.510Z,23.00
2022-07-27T13:30:26.885Z,23.90
2022-07-27T13:32:56.257Z,23.30
2022-07-27T13:35:24.541Z,23.90
2022-07-27T13:37:52.590Z,24.10
2022-07-27T13:40:21.063Z,24.70
2022-07-27T13:42:49.181Z,24.90
2022-07-27T13:45:17.378Z,24.80
2022-07-27T13:47:45.394Z,23.90
2022-07-27T13:50:19.231Z,23.90
2022-07-27T13:52:48.954Z,25.10
2022-07-27T13:55:18.770Z,25.40
2022-07-27T13:57:47.818Z,25.30
2022-07-27T14:00:17.503Z,25.20
2022-07-27T14:02:46.193Z,24.40
2022-07-27T14:05:20.261Z,23.80
2022-07-27T14:07:48.672Z,23.50
2022-07-27T14:10:41.873Z,23.40
2022-07-27T14:13:12.258Z,23.30
2022-07-27T14:15:54.297Z,23.40
2022-07-27T14:18:28.547Z,23.90
2022-07-27T14:20:59.497Z,23.50
2022-07-27T14:23:28.733Z,23.00
2022-07-27T14:25:58.252Z,23.20
2022-07-27T14:28:27.290Z,23.50
2022-07-27T14:30:56.756Z,23.90
2022-07-27T14:33:26.374Z,24.00
2022-07-27T14:36:03.894Z,24.10
2022-07-27T14:38:31.936Z,23.90
2022-07-27T14:41:01.667Z,24.10
2022-07-27T14:43:30.851Z,24.10
2022-07-27T14:45:59.554Z,24.40
2022-07-27T14:48:48.804Z,24.10
2022-07-27T14:51:17.503Z,24.50
2022-07-27T14:53:46.215Z,24.30
2022-07-27T14:56:14.496Z,23.90
2022-07-27T14:58:42.763Z,23.40
2022-07-27T15:01:11.051Z,24.10
2022-07-27T15:03:39.126Z,24.40
2022-07-27T15:06:07.355Z,24.60
2022-07-27T15:08:36.771Z,24.00
2022-07-27T15:11:05.174Z,23.50
2022-07-27T15:13:34.121Z,23.40
2022-07-27T15:16:03.194Z,23.20
2022-07-27T15:18:35.059Z,23.50
2022-07-27T15:21:12.645Z,23.50
2022-07-27T15:23:43.532Z,23.90
2022-07-27T15:26:12.636Z,23.70
2022-07-27T15:28:40.911Z,22.90
2022-07-27T15:31:09.037Z,23.30
2022-07-27T15:33:37.287Z,23.30
2022-07-27T15:36:05.860Z,23.40
2022-07-27T15:38:34.018Z,23.30
2022-07-27T15:41:03.502Z,23.40
2022-07-27T15:43:31.672Z,23.40
2022-07-27T15:45:59.691Z,23.30
2022-07-27T15:48:28.147Z,23.70
2022-07-27T15:50:58.431Z,23.90
2022-07-27T15:53:27.028Z,24.10
2022-07-27T15:55:55.814Z,24.20
2022-07-27T15:58:25.373Z,24.50
2022-07-27T16:00:56.023Z,24.00
2022-07-27T16:03:26.898Z,23.80
2022-07-27T16:05:55.163Z,23.90
2022-07-27T16:08:23.526Z,24.50
2022-07-27T16:10:51.632Z,24.70
2022-07-27T16:13:20.061Z,24.40
2022-07-27T16:16:07.437Z,24.70
2022-07-27T16:18:38.963Z,24.80
2022-07-27T16:21:07.457Z,25.20
2022-07-27T16:23:35.722Z,25.40
2022-07-27T16:26:05.713Z,25.10
2022-07-27T16:28:36.673Z,25.00
2022-07-27T16:31:07.347Z,24.80
2022-07-27T16:33:35.686Z,24.30
2022-07-27T16:36:03.791Z,24.10
2022-07-27T16:38:31.862Z,24.40
2022-07-27T16:40:59.857Z,24.50
2022-07-27T16:43:37.961Z,24.80
2022-07-27T16:46:10.125Z,25.10
2022-07-27T16:48:41.819Z,24.50
2022-07-27T16:51:12.896Z,24.10
2022-07-27T16:53:42.479Z,23.60
2022-07-27T16:56:10.931Z,23.50
2022-07-27T16:58:39.903Z,23.50
2022-07-27T17:01:15.050Z,23.70
2022-07-27T17:03:51.387Z,23.80
2022-07-27T17:06:21.018Z,24.10
2022-07-27T17:08:49.266Z,23.80
2022-07-27T17:11:21.573Z,23.80
2022-07-27T17:13:50.832Z,23.60
2022-07-27T17:16:27.220Z,23.60
2022-07-27T17:18:55.943Z,23.50
2022-07-27T17:21:23.986Z,23.40
2022-07-27T17:23:51.999Z,23.20
2022-07-27T17:26:20.124Z,23.00
2022-07-27T17:28:52.718Z,22.90
2022-07-27T17:31:21.437Z,22.60
2022-07-27T17:33:51.153Z,22.80
2022-07-27T17:36:19.607Z,22.50
2022-07-27T17:38:49.228Z,22.50
2022-07-27T17:41:24.054Z,22.50
2022-07-27T17:43:53.954Z,22.30
2022-07-27T17:46:23.001Z,22.40
2022-07-27T17:48:53.103Z,22.40
2022-07-27T17:51:23.263Z,22.20
2022-07-27T17:53:51.511Z,22.10
2022-07-27T17:56:19.595Z,21.80
2022-07-27T17:58:48.295Z,21.70
2022-07-27T18:01:16.463Z,21.70
2022-07-27T18:03:44.735Z,21.60
2022-07-27T18:06:14.410Z,21.50
2022-07-27T18:08:42.485Z,21.60
2022-07-27T18:11:14.554Z,21.70
2022-07-27T18:13:43.116Z,21.70
2022-07-27T18:16:13.255Z,21.80
2022-07-27T18:18:42.077Z,22.10
2022-07-27T18:21:11.094Z,22.40
2022-07-27T18:23:40.861Z,22.40
2022-07-27T18:26:09.974Z,22.00
2022-07-27T18:28:40.094Z,21.70
2022-07-27T18:31:09.927Z,21.20
2022-07-27T18:33:40.497Z,21.00
2022-07-27T18:36:09.008Z,20.90
2022-07-27T18:38:38.127Z,21.20
2022-07-27T18:41:07.780Z,20.80
2022-07-27T18:43:35.930Z,20.60
2022-07-27T18:46:04.499Z,20.60
2022-07-27T18:48:32.941Z,20.40
2022-07-27T18:51:01.021Z,20.40
2022-07-27T18:53:29.183Z,20.30
2022-07-27T18:55:57.403Z,20.00
2022-07-27T18:58:27.746Z,19.90
2022-07-27T19:00:56.883Z,19.90
2022-07-27T19:03:27.799Z,19.80
2022-07-27T19:05:56.182Z,19.70
2022-07-27T19:08:24.451Z,19.60
2022-07-27T19:10:52.997Z,19.50
2022-07-27T19:13:21.182Z,19.60
2022-07-27T19:15:50.772Z,19.40
2022-07-27T19:18:18.941Z,19.50
2022-07-27T19:20:47.495Z,19.70
2022-07-27T19:23:15.517Z,19.70
2022-07-27T19:25:45.338Z,19.60
2022-07-27T19:28:16.561Z,19.60
2022-07-27T19:30:44.699Z,19.40
2022-07-27T19:33:14.367Z,19.60
2022-07-27T19:35:42.559Z,19.90
2022-07-27T19:38:10.658Z,20.30
2022-07-27T19:40:44.460Z,20.10
2022-07-27T19:43:13.600Z,19.90
2022-07-27T19:45:41.802Z,19.80
2022-07-27T19:48:10.519Z,19.60
2022-07-27T19:50:40.129Z,19.70
2022-07-27T19:53:08.381Z,19.80
2022-07-27T19:55:36.439Z,19.60
2022-07-27T19:58:04.772Z,19.50
2022-07-27T20:00:32.850Z,19.60
2022-07-27T20:03:00.967Z,19.60
2022-07-27T20:05:29.095Z,19.60
2022-07-27T20:07:58.586Z,19.80
2022-07-27T20:10:26.603Z,20.20
2022-07-27T20:12:54.674Z,19.70
2022-07-27T20:15:23.049Z,19.80
2022-07-27T20:17:51.271Z,19.90
2022-07-27T20:20:19.668Z,19.80
2022-07-27T20:22:47.877Z,19.60
2022-07-27T20:25:18.594Z,19.40
2022-07-27T20:27:47.575Z,19.40
2022-07-27T20:30:18.004Z,19.60
2022-07-27T20:32:46.867Z,19.50
2022-07-27T20:35:15.426Z,19.60
2022-07-27T20:37:43.750Z,19.60
2022-07-27T20:40:12.837Z,19.40
2022-07-27T20:42:43.301Z,19.40
2022-07-27T20:45:14.685Z,19.20
2022-07-27T20:47:43.610Z,19.40
2022-07-27T20:50:13.506Z,19.30
2022-07-27T20:52:43.024Z,18.90
2022-07-27T20:55:12.183Z,19.00
2022-07-27T20:57:40.406Z,19.00
2022-07-27T21:00:11.387Z,19.00
2022-07-27T21:02:39.671Z,19.00
2022-07-27T21:05:09.630Z,18.90
2022-07-27T21:07:37.774Z,18.80
2022-07-27T21:10:06.393Z,18.90
2022-07-27T21:12:34.935Z,18.90
2022-07-27T21:15:03.035Z,18.90
2022-07-27T21:17:32.569Z,18.80
2022-07-27T21:20:00.609Z,18.80
2022-07-27T21:22:29.031Z,18.90
2022-07-27T21:24:56.104Z,18.70
2022-07-27T21:27:24.285Z,18.90
2022-07-27T21:29:52.987Z,18.80
2022-07-27T21:32:21.075Z,18.90
2022-07-27T21:34:50.404Z,18.80
2022-07-27T21:37:18.629Z,18.70
2022-07-27T21:40:07.429Z,18.60
2022-07-27T21:42:35.560Z,18.60
2022-07-27T21:45:03.606Z,18.50
2022-07-27T21:47:32.780Z,18.40
2022-07-27T21:50:02.195Z,18.50
2022-07-27T21:52:30.298Z,18.20
2022-07-27T21:54:58.294Z,18.30
2022-07-27T21:57:26.429Z,18.10
2022-07-27T21:59:54.417Z,18.20
2022-07-27T22:02:22.890Z,18.20
2022-07-27T22:04:56.524Z,18.20
2022-07-27T22:07:25.887Z,18.00
2022-07-27T22:09:54.011Z,18.00
2022-07-27T22:12:22.146Z,17.80
2022-07-27T22:14:50.200Z,17.70
2022-07-27T22:17:18.527Z,17.70
2022-07-27T22:19:46.843Z,17.50
2022-07-27T22:22:14.936Z,17.70
2022-07-27T22:24:44.324Z,17.40
2022-07-27T22:27:12.591Z,17.50
2022-07-27T22:29:40.727Z,17.40
2022-07-27T22:32:09.125Z,17.40
2022-07-27T22:34:37.496Z,17.50
2022-07-27T22:37:05.810Z,17.50
2022-07-27T22:39:34.192Z,17.40
2022-07-27T22:42:03.661Z,17.10
2022-07-27T22:44:31.934Z,17.10
2022-07-27T22:46:59.990Z,17.20
2022-07-27T22:49:28.117Z,17.30
2022-07-27T22:51:56.124Z,17.00
2022-07-27T22:54:24.583Z,16.90
2022-07-27T22:56:53.445Z,16.90
2022-07-27T22:59:22.921Z,16.90
2022-07-27T23:01:50.992Z,16.90
2022-07-27T23:04:19.355Z,17.00
2022-07-27T23:06:47.800Z,16.80
2022-07-27T23:09:16.415Z,16.40
2022-07-27T23:11:45.773Z,16.40
2022-07-27T23:14:14.183Z,16.40
2022-07-27T23:16:44.731Z,16.30
2022-07-27T23:19:13.087Z,16.30
2022-07-27T23:21:42.394Z,16.20
2022-07-27T23:24:11.179Z,16.20
2022-07-27T23:26:41.962Z,16.40
2022-07-27T23:29:10.005Z,16.20
2022-07-27T23:31:38.328Z,16.30
2022-07-27T23:34:08.196Z,16.30
2022-07-27T23:36:36.392Z,16.20
2022-07-27T23:39:04.585Z,16.20
2022-07-27T23:41:32.919Z,16.10
2022-07-27T23:44:00.963Z,16.00
2022-07-27T23:46:29.224Z,16.00
2022-07-27T23:48:57.405Z,16.00
2022-07-27T23:51:26.880Z,16.10
2022-07-27T23:53:54.898Z,16.00
2022-07-27T23:56:23.025Z,15.90
2022-07-27T23:58:51.017Z,15.90
